sensor_id;sensor_type;location;lat;lon;timestamp;temperature;humidity
21193;DHT22;10754;51.106;7.164;2023-02-13T00:02:15;11.90;1.00
21193;DHT22;10754;51.106;7.164;2023-02-13T00:04:40;11.80;1.00
21193;DHT22;10754;51.106;7.164;2023-02-13T00:07:08;11.80;1.00
21193;DHT22;10754;51.106;7.164;2023-02-13T00:09:36;11.80;1.00
21193;DHT22;10754;51.106;7.164;2023-02-13T00:12:01;11.90;1.00
21193;DHT22;10754;51.106;7.164;2023-02-13T00:14:27;12.00;1.00
21193;DHT22;10754;51.106;7.164;2023-02-13T00:16:52;12.00;1.00
21193;DHT22;10754;51.106;7.164;2023-02-13T00:19:18;12.00;1.00
21193;DHT22;10754;51.106;7.164;2023-02-13T00:21:43;11.80;1.00
21193;DHT22;10754;51.106;7.164;2023-02-13T00:24:09;11.90;1.00
21193;DHT22;10754;51.106;7.164;2023-02-13T00:26:34;11.90;1.00
21193;DHT22;10754;51.106;7.164;2023-02-13T00:29:00;11.70;1.00
21193;DHT22;10754;51.106;7.164;2023-02-13T00:31:25;11.80;1.00
21193;DHT22;10754;51.106;7.164;2023-02-13T00:33:51;11.70;1.00
21193;DHT22;10754;51.106;7.164;2023-02-13T00:36:19;11.60;1.00
21193;DHT22;10754;51.106;7.164;2023-02-13T00:38:46;11.50;1.00
21193;DHT22;10754;51.106;7.164;2023-02-13T00:41:12;11.50;1.00
21193;DHT22;10754;51.106;7.164;2023-02-13T00:43:38;11.50;1.00
21193;DHT22;10754;51.106;7.164;2023-02-13T00:46:03;11.60;1.00
21193;DHT22;10754;51.106;7.164;2023-02-13T00:48:30;11.80;1.00
21193;DHT22;10754;51.106;7.164;2023-02-13T00:50:56;11.80;1.00
21193;DHT22;10754;51.106;7.164;2023-02-13T00:53:23;11.70;1.00
21193;DHT22;10754;51.106;7.164;2023-02-13T00:55:49;11.60;1.00
21193;DHT22;10754;51.106;7.164;2023-02-13T00:58:16;11.90;1.00
21193;DHT22;10754;51.106;7.164;2023-02-13T01:00:42;11.70;1.00
21193;DHT22;10754;51.106;7.164;2023-02-13T01:03:08;11.70;1.00
21193;DHT22;10754;51.106;7.164;2023-02-13T01:05:34;11.60;1.00
21193;DHT22;10754;51.106;7.164;2023-02-13T01:08:00;11.60;1.00
21193;DHT22;10754;51.106;7.164;2023-02-13T01:10:25;11.60;1.00
21193;DHT22;10754;51.106;7.164;2023-02-13T01:12:51;11.60;1.00
21193;DHT22;10754;51.106;7.164;2023-02-13T01:15:17;11.60;1.00
21193;DHT22;10754;51.106;7.164;2023-02-13T01:17:43;11.60;1.00
21193;DHT22;10754;51.106;7.164;2023-02-13T01:20:10;11.80;1.00
21193;DHT22;10754;51.106;7.164;2023-02-13T01:22:36;11.60;1.00
21193;DHT22;10754;51.106;7.164;2023-02-13T01:25:02;11.60;1.00
21193;DHT22;10754;51.106;7.164;2023-02-13T01:27:28;11.40;1.00
21193;DHT22;10754;51.106;7.164;2023-02-13T01:29:55;11.30;1.00
21193;DHT22;10754;51.106;7.164;2023-02-13T01:32:21;11.50;1.00
21193;DHT22;10754;51.106;7.164;2023-02-13T01:34:46;11.40;1.00
21193;DHT22;10754;51.106;7.164;2023-02-13T01:37:12;11.40;1.00
21193;DHT22;10754;51.106;7.164;2023-02-13T01:39:37;11.60;1.00
21193;DHT22;10754;51.106;7.164;2023-02-13T01:42:03;11.60;1.00
21193;DHT22;10754;51.106;7.164;2023-02-13T01:47:44;11.70;1.00
21193;DHT22;10754;51.106;7.164;2023-02-13T01:50:11;11.50;1.00
21193;DHT22;10754;51.106;7.164;2023-02-13T01:52:40;11.60;1.00
21193;DHT22;10754;51.106;7.164;2023-02-13T01:55:07;11.60;1.00
21193;DHT22;10754;51.106;7.164;2023-02-13T01:57:33;11.40;1.00
21193;DHT22;10754;51.106;7.164;2023-02-13T02:00:05;11.40;1.00
21193;DHT22;10754;51.106;7.164;2023-02-13T02:02:35;11.50;1.00
21193;DHT22;10754;51.106;7.164;2023-02-13T02:05:02;11.60;1.00
21193;DHT22;10754;51.106;7.164;2023-02-13T02:07:30;11.40;1.00
21193;DHT22;10754;51.106;7.164;2023-02-13T02:09:59;11.40;1.00
21193;DHT22;10754;51.106;7.164;2023-02-13T02:14:57;11.60;1.00
21193;DHT22;10754;51.106;7.164;2023-02-13T02:17:25;11.40;1.00
21193;DHT22;10754;51.106;7.164;2023-02-13T02:25:36;11.30;1.00
21193;DHT22;10754;51.106;7.164;2023-02-13T02:28:28;11.40;1.00
21193;DHT22;10754;51.106;7.164;2023-02-13T02:45:37;11.30;1.00
21193;DHT22;10754;51.106;7.164;2023-02-13T02:54:15;11.30;1.00
21193;DHT22;10754;51.106;7.164;2023-02-13T02:57:17;11.30;1.00
21193;DHT22;10754;51.106;7.164;2023-02-13T02:59:45;11.30;1.00
21193;DHT22;10754;51.106;7.164;2023-02-13T03:02:29;11.10;1.00
21193;DHT22;10754;51.106;7.164;2023-02-13T03:05:23;11.30;1.00
21193;DHT22;10754;51.106;7.164;2023-02-13T03:08:08;11.40;1.00
21193;DHT22;10754;51.106;7.164;2023-02-13T03:10:36;11.40;1.00
21193;DHT22;10754;51.106;7.164;2023-02-13T03:13:43;11.40;1.00
21193;DHT22;10754;51.106;7.164;2023-02-13T03:16:16;11.40;1.00
21193;DHT22;10754;51.106;7.164;2023-02-13T03:19:02;11.20;1.00
21193;DHT22;10754;51.106;7.164;2023-02-13T03:21:57;11.30;1.00
21193;DHT22;10754;51.106;7.164;2023-02-13T03:24:52;11.30;1.00
21193;DHT22;10754;51.106;7.164;2023-02-13T03:30:38;11.40;1.00
21193;DHT22;10754;51.106;7.164;2023-02-13T03:38:58;11.40;1.00
21193;DHT22;10754;51.106;7.164;2023-02-13T03:41:35;11.30;1.00
21193;DHT22;10754;51.106;7.164;2023-02-13T03:46:54;11.50;1.00
21193;DHT22;10754;51.106;7.164;2023-02-13T03:49:24;11.50;1.00
21193;DHT22;10754;51.106;7.164;2023-02-13T03:52:16;11.50;1.00
21193;DHT22;10754;51.106;7.164;2023-02-13T03:54:59;11.40;1.00
21193;DHT22;10754;51.106;7.164;2023-02-13T03:57:46;11.60;1.00
21193;DHT22;10754;51.106;7.164;2023-02-13T04:00:38;11.50;1.00
21193;DHT22;10754;51.106;7.164;2023-02-13T04:05:57;11.40;1.00
21193;DHT22;10754;51.106;7.164;2023-02-13T04:08:25;11.40;1.00
21193;DHT22;10754;51.106;7.164;2023-02-13T04:10:57;11.40;1.00
21193;DHT22;10754;51.106;7.164;2023-02-13T04:13:46;11.50;1.00
21193;DHT22;10754;51.106;7.164;2023-02-13T04:16:16;11.30;1.00
21193;DHT22;10754;51.106;7.164;2023-02-13T04:18:44;11.20;1.00
21193;DHT22;10754;51.106;7.164;2023-02-13T04:21:10;11.10;1.00
21193;DHT22;10754;51.106;7.164;2023-02-13T04:23:35;11.30;1.00
21193;DHT22;10754;51.106;7.164;2023-02-13T04:26:03;11.40;1.00
21193;DHT22;10754;51.106;7.164;2023-02-13T04:28:29;11.20;1.00
21193;DHT22;10754;51.106;7.164;2023-02-13T04:30:55;11.30;1.00
21193;DHT22;10754;51.106;7.164;2023-02-13T04:33:22;11.30;1.00
21193;DHT22;10754;51.106;7.164;2023-02-13T04:35:47;11.30;1.00
21193;DHT22;10754;51.106;7.164;2023-02-13T04:38:13;11.00;1.00
21193;DHT22;10754;51.106;7.164;2023-02-13T04:40:38;11.20;1.00
21193;DHT22;10754;51.106;7.164;2023-02-13T04:43:04;11.50;1.00
21193;DHT22;10754;51.106;7.164;2023-02-13T04:45:29;11.50;1.00
21193;DHT22;10754;51.106;7.164;2023-02-13T04:47:56;11.40;1.00
21193;DHT22;10754;51.106;7.164;2023-02-13T04:50:22;11.30;1.00
21193;DHT22;10754;51.106;7.164;2023-02-13T04:52:55;11.10;1.00
21193;DHT22;10754;51.106;7.164;2023-02-13T04:55:25;11.20;1.00
21193;DHT22;10754;51.106;7.164;2023-02-13T04:57:52;11.50;1.00
21193;DHT22;10754;51.106;7.164;2023-02-13T05:00:19;11.40;1.00
21193;DHT22;10754;51.106;7.164;2023-02-13T05:02:45;11.30;1.00
21193;DHT22;10754;51.106;7.164;2023-02-13T05:05:10;11.10;1.00
21193;DHT22;10754;51.106;7.164;2023-02-13T05:07:36;11.30;1.00
21193;DHT22;10754;51.106;7.164;2023-02-13T05:10:01;11.20;1.00
21193;DHT22;10754;51.106;7.164;2023-02-13T05:12:27;11.20;1.00
21193;DHT22;10754;51.106;7.164;2023-02-13T05:14:52;11.10;1.00
21193;DHT22;10754;51.106;7.164;2023-02-13T05:17:18;10.90;1.00
21193;DHT22;10754;51.106;7.164;2023-02-13T05:19:43;10.80;1.00
21193;DHT22;10754;51.106;7.164;2023-02-13T05:22:10;10.80;1.00
21193;DHT22;10754;51.106;7.164;2023-02-13T05:24:54;10.80;1.00
21193;DHT22;10754;51.106;7.164;2023-02-13T05:27:19;10.70;1.00
21193;DHT22;10754;51.106;7.164;2023-02-13T05:29:45;10.50;1.00
21193;DHT22;10754;51.106;7.164;2023-02-13T05:32:11;10.60;1.00
21193;DHT22;10754;51.106;7.164;2023-02-13T05:34:36;10.60;1.00
21193;DHT22;10754;51.106;7.164;2023-02-13T05:37:02;10.70;1.00
21193;DHT22;10754;51.106;7.164;2023-02-13T05:39:27;10.60;1.00
21193;DHT22;10754;51.106;7.164;2023-02-13T05:41:53;10.50;1.00
21193;DHT22;10754;51.106;7.164;2023-02-13T05:44:18;10.50;1.00
21193;DHT22;10754;51.106;7.164;2023-02-13T05:46:44;10.40;1.00
21193;DHT22;10754;51.106;7.164;2023-02-13T05:49:11;10.50;1.00
21193;DHT22;10754;51.106;7.164;2023-02-13T05:51:37;10.70;1.00
21193;DHT22;10754;51.106;7.164;2023-02-13T05:54:03;10.80;1.00
21193;DHT22;10754;51.106;7.164;2023-02-13T05:56:28;10.90;1.00
21193;DHT22;10754;51.106;7.164;2023-02-13T05:58:54;10.90;1.00
21193;DHT22;10754;51.106;7.164;2023-02-13T06:01:21;11.00;1.00
21193;DHT22;10754;51.106;7.164;2023-02-13T06:03:47;10.80;1.00
21193;DHT22;10754;51.106;7.164;2023-02-13T06:06:13;10.70;1.00
21193;DHT22;10754;51.106;7.164;2023-02-13T06:08:39;10.60;1.00
21193;DHT22;10754;51.106;7.164;2023-02-13T06:11:05;10.60;1.00
21193;DHT22;10754;51.106;7.164;2023-02-13T06:13:30;10.50;1.00
21193;DHT22;10754;51.106;7.164;2023-02-13T06:15:56;10.40;1.00
21193;DHT22;10754;51.106;7.164;2023-02-13T06:18:21;10.40;1.00
21193;DHT22;10754;51.106;7.164;2023-02-13T06:20:47;10.30;1.00
21193;DHT22;10754;51.106;7.164;2023-02-13T06:23:13;10.20;1.00
21193;DHT22;10754;51.106;7.164;2023-02-13T06:25:39;10.00;1.00
21193;DHT22;10754;51.106;7.164;2023-02-13T06:28:04;10.00;1.00
21193;DHT22;10754;51.106;7.164;2023-02-13T06:30:30;10.10;1.00
21193;DHT22;10754;51.106;7.164;2023-02-13T06:32:56;10.20;1.00
21193;DHT22;10754;51.106;7.164;2023-02-13T06:35:21;10.20;1.00
21193;DHT22;10754;51.106;7.164;2023-02-13T06:37:47;10.30;1.00
21193;DHT22;10754;51.106;7.164;2023-02-13T06:40:13;10.50;1.00
21193;DHT22;10754;51.106;7.164;2023-02-13T06:42:41;10.40;1.00
21193;DHT22;10754;51.106;7.164;2023-02-13T06:45:07;10.30;1.00
21193;DHT22;10754;51.106;7.164;2023-02-13T06:47:32;10.30;1.00
21193;DHT22;10754;51.106;7.164;2023-02-13T06:49:58;10.40;1.00
21193;DHT22;10754;51.106;7.164;2023-02-13T06:52:23;10.30;1.00
21193;DHT22;10754;51.106;7.164;2023-02-13T06:54:49;10.30;1.00
21193;DHT22;10754;51.106;7.164;2023-02-13T06:57:15;10.30;1.00
21193;DHT22;10754;51.106;7.164;2023-02-13T06:59:41;10.30;1.00
21193;DHT22;10754;51.106;7.164;2023-02-13T07:02:08;10.20;1.00
21193;DHT22;10754;51.106;7.164;2023-02-13T07:04:34;10.00;1.00
21193;DHT22;10754;51.106;7.164;2023-02-13T07:07:00;9.90;1.00
21193;DHT22;10754;51.106;7.164;2023-02-13T07:09:25;9.80;1.00
21193;DHT22;10754;51.106;7.164;2023-02-13T07:11:51;9.70;1.00
21193;DHT22;10754;51.106;7.164;2023-02-13T07:14:16;9.60;1.00
21193;DHT22;10754;51.106;7.164;2023-02-13T07:16:42;9.60;1.00
21193;DHT22;10754;51.106;7.164;2023-02-13T07:19:07;9.70;1.00
21193;DHT22;10754;51.106;7.164;2023-02-13T07:21:33;9.80;1.00
21193;DHT22;10754;51.106;7.164;2023-02-13T07:23:58;9.90;1.00
21193;DHT22;10754;51.106;7.164;2023-02-13T07:26:24;9.90;1.00
21193;DHT22;10754;51.106;7.164;2023-02-13T07:28:51;9.80;1.00
21193;DHT22;10754;51.106;7.164;2023-02-13T07:31:17;9.80;1.00
21193;DHT22;10754;51.106;7.164;2023-02-13T07:33:42;9.70;1.00
21193;DHT22;10754;51.106;7.164;2023-02-13T07:36:08;9.90;1.00
21193;DHT22;10754;51.106;7.164;2023-02-13T07:38:33;10.00;1.00
21193;DHT22;10754;51.106;7.164;2023-02-13T07:41:00;10.00;1.00
21193;DHT22;10754;51.106;7.164;2023-02-13T07:43:27;10.10;1.00
21193;DHT22;10754;51.106;7.164;2023-02-13T07:45:55;10.00;1.00
21193;DHT22;10754;51.106;7.164;2023-02-13T07:48:22;10.00;1.00
21193;DHT22;10754;51.106;7.164;2023-02-13T07:50:48;10.00;1.00
21193;DHT22;10754;51.106;7.164;2023-02-13T07:53:14;10.10;1.00
21193;DHT22;10754;51.106;7.164;2023-02-13T07:55:39;10.10;1.00
21193;DHT22;10754;51.106;7.164;2023-02-13T07:58:05;10.10;1.00
21193;DHT22;10754;51.106;7.164;2023-02-13T08:00:31;10.20;1.00
21193;DHT22;10754;51.106;7.164;2023-02-13T08:02:59;10.10;1.00
21193;DHT22;10754;51.106;7.164;2023-02-13T08:05:25;10.10;1.00
21193;DHT22;10754;51.106;7.164;2023-02-13T08:07:51;10.10;1.00
21193;DHT22;10754;51.106;7.164;2023-02-13T08:10:17;10.20;1.00
21193;DHT22;10754;51.106;7.164;2023-02-13T08:13:01;10.30;1.00
21193;DHT22;10754;51.106;7.164;2023-02-13T08:15:26;10.60;1.00
21193;DHT22;10754;51.106;7.164;2023-02-13T08:17:52;10.60;1.00
21193;DHT22;10754;51.106;7.164;2023-02-13T08:20:18;10.70;1.00
21193;DHT22;10754;51.106;7.164;2023-02-13T08:22:43;10.70;1.00
21193;DHT22;10754;51.106;7.164;2023-02-13T08:25:09;10.80;1.00
21193;DHT22;10754;51.106;7.164;2023-02-13T08:27:35;10.60;1.00
21193;DHT22;10754;51.106;7.164;2023-02-13T08:30:00;10.90;1.00
21193;DHT22;10754;51.106;7.164;2023-02-13T08:32:28;11.00;1.00
21193;DHT22;10754;51.106;7.164;2023-02-13T08:34:53;11.00;1.00
21193;DHT22;10754;51.106;7.164;2023-02-13T08:37:19;11.00;1.00
21193;DHT22;10754;51.106;7.164;2023-02-13T08:39:44;11.10;1.00
21193;DHT22;10754;51.106;7.164;2023-02-13T08:42:10;11.20;1.00
21193;DHT22;10754;51.106;7.164;2023-02-13T08:44:36;11.30;1.00
21193;DHT22;10754;51.106;7.164;2023-02-13T08:47:02;11.20;1.00
21193;DHT22;10754;51.106;7.164;2023-02-13T08:49:29;11.40;1.00
21193;DHT22;10754;51.106;7.164;2023-02-13T08:51:54;11.50;1.00
21193;DHT22;10754;51.106;7.164;2023-02-13T08:54:20;11.70;1.00
21193;DHT22;10754;51.106;7.164;2023-02-13T08:56:45;11.70;1.00
21193;DHT22;10754;51.106;7.164;2023-02-13T08:59:11;11.80;1.00
21193;DHT22;10754;51.106;7.164;2023-02-13T09:01:36;11.90;1.00
21193;DHT22;10754;51.106;7.164;2023-02-13T09:04:02;11.90;1.00
21193;DHT22;10754;51.106;7.164;2023-02-13T09:06:28;12.10;1.00
21193;DHT22;10754;51.106;7.164;2023-02-13T09:08:53;12.10;1.00
21193;DHT22;10754;51.106;7.164;2023-02-13T09:11:19;12.00;1.00
21193;DHT22;10754;51.106;7.164;2023-02-13T09:13:53;12.20;1.00
21193;DHT22;10754;51.106;7.164;2023-02-13T09:16:19;12.30;1.00
21193;DHT22;10754;51.106;7.164;2023-02-13T09:18:49;12.20;1.00
21193;DHT22;10754;51.106;7.164;2023-02-13T09:21:17;12.20;1.00
21193;DHT22;10754;51.106;7.164;2023-02-13T09:23:43;12.20;1.00
21193;DHT22;10754;51.106;7.164;2023-02-13T09:26:13;12.50;1.00
21193;DHT22;10754;51.106;7.164;2023-02-13T09:28:39;12.60;1.00
21193;DHT22;10754;51.106;7.164;2023-02-13T09:31:10;12.60;1.00
21193;DHT22;10754;51.106;7.164;2023-02-13T09:33:36;12.70;1.00
21193;DHT22;10754;51.106;7.164;2023-02-13T09:36:07;12.70;1.00
21193;DHT22;10754;51.106;7.164;2023-02-13T09:38:33;13.10;1.00
21193;DHT22;10754;51.106;7.164;2023-02-13T09:41:03;13.20;1.00
21193;DHT22;10754;51.106;7.164;2023-02-13T09:43:48;13.30;1.00
21193;DHT22;10754;51.106;7.164;2023-02-13T09:46:24;13.20;1.00
21193;DHT22;10754;51.106;7.164;2023-02-13T09:48:55;13.10;1.00
21193;DHT22;10754;51.106;7.164;2023-02-13T09:51:24;13.20;1.00
21193;DHT22;10754;51.106;7.164;2023-02-13T09:54:02;13.40;1.00
21193;DHT22;10754;51.106;7.164;2023-02-13T09:56:47;13.30;1.00
21193;DHT22;10754;51.106;7.164;2023-02-13T10:01:49;13.50;1.00
21193;DHT22;10754;51.106;7.164;2023-02-13T10:04:23;13.90;1.00
21193;DHT22;10754;51.106;7.164;2023-02-13T10:09:55;14.20;1.00
21193;DHT22;10754;51.106;7.164;2023-02-13T10:12:51;14.20;1.00
21193;DHT22;10754;51.106;7.164;2023-02-13T10:18:41;14.50;1.00
21193;DHT22;10754;51.106;7.164;2023-02-13T10:21:08;14.80;1.00
21193;DHT22;10754;51.106;7.164;2023-02-13T10:23:44;14.80;1.00
21193;DHT22;10754;51.106;7.164;2023-02-13T10:26:21;14.80;1.00
21193;DHT22;10754;51.106;7.164;2023-02-13T10:31:38;15.00;1.00
21193;DHT22;10754;51.106;7.164;2023-02-13T10:34:05;15.20;1.00
21193;DHT22;10754;51.106;7.164;2023-02-13T10:36:36;15.30;1.00
21193;DHT22;10754;51.106;7.164;2023-02-13T10:41:36;15.40;1.00
21193;DHT22;10754;51.106;7.164;2023-02-13T10:44:17;15.50;1.00
21193;DHT22;10754;51.106;7.164;2023-02-13T10:49:36;16.10;1.00
21193;DHT22;10754;51.106;7.164;2023-02-13T10:52:22;16.30;1.00
21193;DHT22;10754;51.106;7.164;2023-02-13T10:55:04;16.60;99.90
21193;DHT22;10754;51.106;7.164;2023-02-13T11:00:10;17.10;99.90
21193;DHT22;10754;51.106;7.164;2023-02-13T11:02:37;17.30;99.90
21193;DHT22;10754;51.106;7.164;2023-02-13T11:05:22;17.60;99.90
21193;DHT22;10754;51.106;7.164;2023-02-13T11:07:49;17.80;99.90
21193;DHT22;10754;51.106;7.164;2023-02-13T11:10:23;18.00;99.90
21193;DHT22;10754;51.106;7.164;2023-02-13T11:12:49;18.30;99.90
21193;DHT22;10754;51.106;7.164;2023-02-13T11:15:22;18.60;99.90
21193;DHT22;10754;51.106;7.164;2023-02-13T11:17:50;19.10;99.90
21193;DHT22;10754;51.106;7.164;2023-02-13T11:20:39;19.50;99.90
21193;DHT22;10754;51.106;7.164;2023-02-13T11:28:20;20.90;99.90
21193;DHT22;10754;51.106;7.164;2023-02-13T11:30:46;21.40;99.90
21193;DHT22;10754;51.106;7.164;2023-02-13T11:33:20;21.80;99.90
21193;DHT22;10754;51.106;7.164;2023-02-13T11:35:46;22.30;99.90
21193;DHT22;10754;51.106;7.164;2023-02-13T11:38:21;22.80;99.90
21193;DHT22;10754;51.106;7.164;2023-02-13T11:41:02;23.30;99.90
21193;DHT22;10754;51.106;7.164;2023-02-13T11:43:30;24.00;99.90
21193;DHT22;10754;51.106;7.164;2023-02-13T11:46:07;24.00;99.90
21193;DHT22;10754;51.106;7.164;2023-02-13T11:48:34;24.40;99.90
21193;DHT22;10754;51.106;7.164;2023-02-13T11:51:00;24.70;99.90
21193;DHT22;10754;51.106;7.164;2023-02-13T11:53:38;25.00;99.90
21193;DHT22;10754;51.106;7.164;2023-02-13T11:56:05;26.00;99.90
21193;DHT22;10754;51.106;7.164;2023-02-13T11:58:32;26.80;99.90
21193;DHT22;10754;51.106;7.164;2023-02-13T12:04:00;26.80;99.90
21193;DHT22;10754;51.106;7.164;2023-02-13T12:06:26;27.10;99.90
21193;DHT22;10754;51.106;7.164;2023-02-13T12:08:52;27.40;99.90
21193;DHT22;10754;51.106;7.164;2023-02-13T12:11:35;27.60;99.90
21193;DHT22;10754;51.106;7.164;2023-02-13T12:14:02;27.80;99.90
21193;DHT22;10754;51.106;7.164;2023-02-13T12:16:44;28.10;99.90
21193;DHT22;10754;51.106;7.164;2023-02-13T12:19:16;28.70;99.90
21193;DHT22;10754;51.106;7.164;2023-02-13T12:24:53;28.60;99.90
21193;DHT22;10754;51.106;7.164;2023-02-13T12:38:59;28.60;99.90
21193;DHT22;10754;51.106;7.164;2023-02-13T12:46:56;29.00;99.90
21193;DHT22;10754;51.106;7.164;2023-02-13T12:55:18;29.10;99.90
21193;DHT22;10754;51.106;7.164;2023-02-13T13:00:40;29.10;99.90
21193;DHT22;10754;51.106;7.164;2023-02-13T13:03:49;28.60;99.90
21193;DHT22;10754;51.106;7.164;2023-02-13T13:06:45;28.40;99.90
21193;DHT22;10754;51.106;7.164;2023-02-13T13:12:17;28.30;99.90
21193;DHT22;10754;51.106;7.164;2023-02-13T13:28:20;25.00;99.90
21193;DHT22;10754;51.106;7.164;2023-02-13T13:30:46;24.70;99.90
21193;DHT22;10754;51.106;7.164;2023-02-13T13:33:19;24.00;99.90
21193;DHT22;10754;51.106;7.164;2023-02-13T13:41:22;23.20;99.90
21193;DHT22;10754;51.106;7.164;2023-02-13T13:49:28;22.50;99.90
21193;DHT22;10754;51.106;7.164;2023-02-13T13:52:27;22.20;99.90
21193;DHT22;10754;51.106;7.164;2023-02-13T13:54:54;21.70;99.90
21193;DHT22;10754;51.106;7.164;2023-02-13T14:02:48;21.10;99.90
21193;DHT22;10754;51.106;7.164;2023-02-13T14:05:26;21.10;99.90
21193;DHT22;10754;51.106;7.164;2023-02-13T14:08:08;21.00;99.90
21193;DHT22;10754;51.106;7.164;2023-02-13T14:13:29;20.70;99.90
21193;DHT22;10754;51.106;7.164;2023-02-13T14:15:55;20.40;99.90
21193;DHT22;10754;51.106;7.164;2023-02-13T14:18:22;19.90;99.90
21193;DHT22;10754;51.106;7.164;2023-02-13T14:23:27;19.60;99.90
21193;DHT22;10754;51.106;7.164;2023-02-13T14:28:42;19.60;99.90
21193;DHT22;10754;51.106;7.164;2023-02-13T14:31:31;19.40;99.90
21193;DHT22;10754;51.106;7.164;2023-02-13T14:34:06;19.10;99.90
21193;DHT22;10754;51.106;7.164;2023-02-13T14:36:37;19.30;99.90
21193;DHT22;10754;51.106;7.164;2023-02-13T14:39:06;19.30;99.90
21193;DHT22;10754;51.106;7.164;2023-02-13T14:41:43;19.40;99.90
21193;DHT22;10754;51.106;7.164;2023-02-13T14:44:24;19.10;99.90
21193;DHT22;10754;51.106;7.164;2023-02-13T14:46:51;19.10;99.90
21193;DHT22;10754;51.106;7.164;2023-02-13T14:49:29;18.90;99.90
21193;DHT22;10754;51.106;7.164;2023-02-13T14:51:58;18.80;99.90
21193;DHT22;10754;51.106;7.164;2023-02-13T14:54:42;18.70;99.90
21193;DHT22;10754;51.106;7.164;2023-02-13T14:57:22;18.80;99.90
21193;DHT22;10754;51.106;7.164;2023-02-13T14:59:57;18.50;99.90
21193;DHT22;10754;51.106;7.164;2023-02-13T15:02:32;18.40;99.90
21193;DHT22;10754;51.106;7.164;2023-02-13T15:05:03;18.40;99.90
21193;DHT22;10754;51.106;7.164;2023-02-13T15:07:33;18.30;99.90
21193;DHT22;10754;51.106;7.164;2023-02-13T15:12:56;18.40;99.90
21193;DHT22;10754;51.106;7.164;2023-02-13T15:15:25;18.20;99.90
21193;DHT22;10754;51.106;7.164;2023-02-13T15:18:02;18.10;99.90
21193;DHT22;10754;51.106;7.164;2023-02-13T15:20:36;18.30;99.90
21193;DHT22;10754;51.106;7.164;2023-02-13T15:23:04;18.10;99.90
21193;DHT22;10754;51.106;7.164;2023-02-13T15:25:38;17.90;99.90
21193;DHT22;10754;51.106;7.164;2023-02-13T15:28:06;17.90;99.90
21193;DHT22;10754;51.106;7.164;2023-02-13T15:30:34;17.80;99.90
21193;DHT22;10754;51.106;7.164;2023-02-13T15:35:36;17.40;99.90
21193;DHT22;10754;51.106;7.164;2023-02-13T15:41:05;17.30;99.90
21193;DHT22;10754;51.106;7.164;2023-02-13T15:43:34;17.40;99.90
21193;DHT22;10754;51.106;7.164;2023-02-13T15:46:04;17.40;99.90
21193;DHT22;10754;51.106;7.164;2023-02-13T15:48:31;17.50;99.90
21193;DHT22;10754;51.106;7.164;2023-02-13T15:50:58;17.30;99.90
21193;DHT22;10754;51.106;7.164;2023-02-13T15:53:23;17.30;99.90
21193;DHT22;10754;51.106;7.164;2023-02-13T15:56:00;17.10;99.90
21193;DHT22;10754;51.106;7.164;2023-02-13T15:58:35;17.00;99.90
21193;DHT22;10754;51.106;7.164;2023-02-13T16:01:06;16.70;99.90
21193;DHT22;10754;51.106;7.164;2023-02-13T16:03:33;16.50;99.90
21193;DHT22;10754;51.106;7.164;2023-02-13T16:05:59;16.30;99.90
21193;DHT22;10754;51.106;7.164;2023-02-13T16:08:29;16.20;99.90
21193;DHT22;10754;51.106;7.164;2023-02-13T16:14:11;16.10;99.90
21193;DHT22;10754;51.106;7.164;2023-02-13T16:17:35;16.00;99.90
21193;DHT22;10754;51.106;7.164;2023-02-13T16:19:50;15.90;99.90
21193;DHT22;10754;51.106;7.164;2023-02-13T16:22:53;15.80;99.90
21193;DHT22;10754;51.106;7.164;2023-02-13T16:25:33;15.70;99.90
21193;DHT22;10754;51.106;7.164;2023-02-13T16:30:42;15.60;99.90
21193;DHT22;10754;51.106;7.164;2023-02-13T16:33:20;15.50;99.90
21193;DHT22;10754;51.106;7.164;2023-02-13T16:38:40;15.40;99.90
21193;DHT22;10754;51.106;7.164;2023-02-13T16:43:49;15.80;99.90
21193;DHT22;10754;51.106;7.164;2023-02-13T16:59:26;14.70;99.90
21193;DHT22;10754;51.106;7.164;2023-02-13T17:02:25;14.60;1.00
21193;DHT22;10754;51.106;7.164;2023-02-13T17:05:17;14.60;1.00
21193;DHT22;10754;51.106;7.164;2023-02-13T17:07:45;14.50;1.00
21193;DHT22;10754;51.106;7.164;2023-02-13T17:10:30;14.30;1.00
21193;DHT22;10754;51.106;7.164;2023-02-13T17:12:59;14.30;1.00
21193;DHT22;10754;51.106;7.164;2023-02-13T17:15:28;14.20;1.00
21193;DHT22;10754;51.106;7.164;2023-02-13T17:17:54;14.10;1.00
21193;DHT22;10754;51.106;7.164;2023-02-13T17:20:25;14.20;1.00
21193;DHT22;10754;51.106;7.164;2023-02-13T17:22:53;14.20;1.00
21193;DHT22;10754;51.106;7.164;2023-02-13T17:25:24;14.20;1.00
21193;DHT22;10754;51.106;7.164;2023-02-13T17:27:53;14.30;1.00
21193;DHT22;10754;51.106;7.164;2023-02-13T17:30:24;14.20;1.00
21193;DHT22;10754;51.106;7.164;2023-02-13T17:32:58;14.10;1.00
21193;DHT22;10754;51.106;7.164;2023-02-13T17:35:25;14.10;1.00
21193;DHT22;10754;51.106;7.164;2023-02-13T17:37:50;14.00;1.00
21193;DHT22;10754;51.106;7.164;2023-02-13T17:40:17;14.00;1.00
21193;DHT22;10754;51.106;7.164;2023-02-13T17:42:50;14.00;1.00
21193;DHT22;10754;51.106;7.164;2023-02-13T17:45:18;14.00;1.00
21193;DHT22;10754;51.106;7.164;2023-02-13T17:47:44;13.80;1.00
21193;DHT22;10754;51.106;7.164;2023-02-13T17:50:11;13.70;1.00
21193;DHT22;10754;51.106;7.164;2023-02-13T17:52:38;13.70;1.00
21193;DHT22;10754;51.106;7.164;2023-02-13T17:55:06;13.60;1.00
21193;DHT22;10754;51.106;7.164;2023-02-13T17:57:35;13.50;1.00
21193;DHT22;10754;51.106;7.164;2023-02-13T18:00:00;13.40;1.00
21193;DHT22;10754;51.106;7.164;2023-02-13T18:02:28;13.30;1.00
21193;DHT22;10754;51.106;7.164;2023-02-13T18:04:54;13.20;1.00
21193;DHT22;10754;51.106;7.164;2023-02-13T18:07:20;13.20;1.00
21193;DHT22;10754;51.106;7.164;2023-02-13T18:09:46;13.10;1.00
21193;DHT22;10754;51.106;7.164;2023-02-13T18:12:21;13.20;1.00
21193;DHT22;10754;51.106;7.164;2023-02-13T18:14:47;13.20;1.00
21193;DHT22;10754;51.106;7.164;2023-02-13T18:17:13;13.10;1.00
21193;DHT22;10754;51.106;7.164;2023-02-13T18:19:39;13.00;1.00
21193;DHT22;10754;51.106;7.164;2023-02-13T18:22:06;13.00;1.00
21193;DHT22;10754;51.106;7.164;2023-02-13T18:24:34;13.00;1.00
21193;DHT22;10754;51.106;7.164;2023-02-13T18:27:00;12.90;1.00
21193;DHT22;10754;51.106;7.164;2023-02-13T18:29:29;13.00;1.00
21193;DHT22;10754;51.106;7.164;2023-02-13T18:31:57;13.00;1.00
21193;DHT22;10754;51.106;7.164;2023-02-13T18:34:23;13.00;1.00
21193;DHT22;10754;51.106;7.164;2023-02-13T18:36:49;13.00;1.00
21193;DHT22;10754;51.106;7.164;2023-02-13T18:39:15;13.00;1.00
21193;DHT22;10754;51.106;7.164;2023-02-13T18:41:42;12.90;1.00
21193;DHT22;10754;51.106;7.164;2023-02-13T18:44:08;12.90;1.00
21193;DHT22;10754;51.106;7.164;2023-02-13T18:46:34;12.80;1.00
21193;DHT22;10754;51.106;7.164;2023-02-13T18:48:59;12.90;1.00
21193;DHT22;10754;51.106;7.164;2023-02-13T18:51:25;12.90;1.00
21193;DHT22;10754;51.106;7.164;2023-02-13T18:53:51;12.80;1.00
21193;DHT22;10754;51.106;7.164;2023-02-13T18:56:16;12.80;1.00
21193;DHT22;10754;51.106;7.164;2023-02-13T18:58:47;12.80;1.00